Time;durP1;ratioP1;P1;durP2;ratioP2;P2;SDS_P1;SDS_P2;PMS_P1;PMS_P2;Temp;Humidity;BMP_temperature;BMP_pressure;BME280_temperature;BME280_humidity;BME280_pressure;Samples;Min_cycle;Max_cycle;Signal;HPM_P1;HPM_P2
2023/02/28 00:01:35;;;;;;;7.93;4.25;;;;;;;;;;4976164;28;20407;-56
2023/02/28 00:04:01;;;;;;;8.68;4.82;;;;;;;;;;4986259;28;20067;-60
2023/02/28 00:06:26;;;;;;;7.97;4.63;;;;;;;;;;4977333;28;20082;-61
2023/02/28 00:08:52;;;;;;;9.27;4.60;;;;;;;;;;4978520;28;20030;-56
2023/02/28 00:11:17;;;;;;;9.98;4.43;;;;;;;;;;4985168;28;20117;-55
2023/02/28 00:13:46;;;;;;;7.47;4.90;;;;;;;;;;4984850;28;20498;-61
2023/02/28 00:16:13;;;;;;;10.55;4.45;;;;;;;;;;4985172;28;20035;-57
2023/02/28 00:18:38;;;;;;;10.10;5.38;;;;;;;;;;4978363;28;20042;-54
2023/02/28 00:21:04;;;;;;;7.30;4.50;;;;;;;;;;4976427;28;20100;-58
2023/02/28 00:23:29;;;;;;;10.73;5.25;;;;;;;;;;4994308;28;20393;-56
2023/02/28 00:25:55;;;;;;;8.55;5.03;;;;;;;;;;4976244;28;20400;-58
2023/02/28 00:28:20;;;;;;;10.65;4.82;;;;;;;;;;4982642;28;20046;-58
2023/02/28 00:30:46;;;;;;;8.82;4.85;;;;;;;;;;4976031;28;20997;-53
2023/02/28 00:33:11;;;;;;;7.15;4.80;;;;;;;;;;4983207;28;20058;-59
2023/02/28 00:35:36;;;;;;;8.13;4.70;;;;;;;;;;4985096;28;21306;-58
2023/02/28 00:38:02;;;;;;;7.47;4.60;;;;;;;;;;4962340;28;20022;-55
2023/02/28 00:40:27;;;;;;;8.70;5.10;;;;;;;;;;4982324;28;20779;-57
2023/02/28 00:42:52;;;;;;;10.82;5.82;;;;;;;;;;4978310;28;20101;-61
2023/02/28 00:45:18;;;;;;;7.43;4.93;;;;;;;;;;4976245;28;20662;-62
2023/02/28 00:47:44;;;;;;;9.50;5.25;;;;;;;;;;4995844;28;20058;-58
2023/02/28 00:50:10;;;;;;;12.85;5.38;;;;;;;;;;4979636;28;20030;-56
2023/02/28 00:52:35;;;;;;;9.50;5.20;;;;;;;;;;4981272;28;20395;-61
2023/02/28 00:55:01;;;;;;;7.75;5.03;;;;;;;;;;4976653;28;20117;-56
2023/02/28 00:57:26;;;;;;;14.95;5.95;;;;;;;;;;4977002;28;20053;-57
2023/02/28 00:59:54;;;;;;;12.88;5.55;;;;;;;;;;4984680;28;20042;-58
2023/02/28 01:02:21;;;;;;;8.25;4.90;;;;;;;;;;4977388;28;20035;-56
2023/02/28 01:04:46;;;;;;;9.43;4.93;;;;;;;;;;4985481;28;20026;-51
2023/02/28 01:07:11;;;;;;;9.55;5.15;;;;;;;;;;4980506;28;20486;-60
2023/02/28 01:09:37;;;;;;;12.80;5.93;;;;;;;;;;4984813;28;20022;-63
2023/02/28 01:12:03;;;;;;;8.97;5.77;;;;;;;;;;4977425;28;20342;-54
2023/02/28 01:14:29;;;;;;;8.05;5.35;;;;;;;;;;4961863;28;20117;-61
2023/02/28 01:16:54;;;;;;;12.57;6.57;;;;;;;;;;4982250;28;20099;-62
2023/02/28 01:19:19;;;;;;;10.57;5.43;;;;;;;;;;4977522;28;20114;-59
2023/02/28 01:21:45;;;;;;;12.18;5.28;;;;;;;;;;4979676;28;20038;-60
2023/02/28 01:24:11;;;;;;;10.50;5.60;;;;;;;;;;4967375;28;20034;-52
2023/02/28 01:26:37;;;;;;;12.63;5.85;;;;;;;;;;4979240;28;20033;-55
2023/02/28 01:29:06;;;;;;;10.52;5.72;;;;;;;;;;4982170;28;20113;-58
2023/02/28 01:31:31;;;;;;;13.07;8.25;;;;;;;;;;4978551;28;20121;-53
2023/02/28 01:33:56;;;;;;;11.90;5.80;;;;;;;;;;4978061;28;20021;-60
2023/02/28 01:36:23;;;;;;;13.50;5.95;;;;;;;;;;4982831;28;21863;-50
2023/02/28 01:38:49;;;;;;;11.10;5.53;;;;;;;;;;4979377;28;20030;-60
2023/02/28 01:41:16;;;;;;;11.70;5.68;;;;;;;;;;4983828;28;20124;-57
2023/02/28 01:43:41;;;;;;;;;;;;;;;;;;4980974;28;20101;-55
2023/02/28 01:46:06;;;;;;;9.87;5.93;;;;;;;;;;4975966;28;20008;-56
2023/02/28 01:48:33;;;;;;;13.38;5.97;;;;;;;;;;4984613;28;20276;-53
2023/02/28 01:51:00;;;;;;;11.67;5.97;;;;;;;;;;4977173;28;20088;-62
2023/02/28 01:53:36;;;;;;;14.13;5.93;;;;;;;;;;4977568;28;20365;-57
2023/02/28 01:56:04;;;;;;;13.75;6.40;;;;;;;;;;4981702;28;20038;-58
2023/02/28 01:58:30;;;;;;;11.55;6.60;;;;;;;;;;4978646;28;20174;-58
2023/02/28 02:00:55;;;;;;;12.40;5.82;;;;;;;;;;4981878;28;20054;-63
2023/02/28 02:03:23;;;;;;;13.38;6.93;;;;;;;;;;4976336;28;20026;-60
2023/02/28 02:05:48;;;;;;;12.00;5.93;;;;;;;;;;4976619;28;20446;-60
2023/02/28 02:08:16;;;;;;;13.00;6.78;;;;;;;;;;4982117;28;20387;-58
2023/02/28 02:10:41;;;;;;;13.48;7.20;;;;;;;;;;4975787;28;20042;-54
2023/02/28 02:13:42;;;;;;;11.18;6.18;;;;;;;;;;4983185;28;20026;-62
2023/02/28 02:16:20;;;;;;;11.68;6.60;;;;;;;;;;4985598;28;20891;-55
2023/02/28 02:18:54;;;;;;;11.82;6.50;;;;;;;;;;4970674;28;20262;-65
2023/02/28 02:21:39;;;;;;;11.57;6.85;;;;;;;;;;4984412;28;20133;-61
2023/02/28 02:24:14;;;;;;;14.15;7.55;;;;;;;;;;4983789;28;20540;-56
2023/02/28 02:26:45;;;;;;;12.60;7.20;;;;;;;;;;4979234;28;20041;-65
2023/02/28 02:29:20;;;;;;;17.00;7.68;;;;;;;;;;4974418;28;20475;-62
2023/02/28 02:31:48;;;;;;;13.95;7.25;;;;;;;;;;4976639;28;20129;-60
2023/02/28 02:34:26;;;;;;;10.00;6.72;;;;;;;;;;4975993;28;20041;-61
2023/02/28 02:36:57;;;;;;;12.10;7.72;;;;;;;;;;4979938;28;20357;-57
2023/02/28 02:39:50;;;;;;;12.80;7.22;;;;;;;;;;4976527;28;20023;-66
2023/02/28 02:42:38;;;;;;;12.70;6.75;;;;;;;;;;4973022;28;20471;-63
2023/02/28 02:45:09;;;;;;;13.50;8.55;;;;;;;;;;4996578;28;20026;-59
2023/02/28 02:47:35;;;;;;;13.00;7.20;;;;;;;;;;4977445;28;20046;-53
2023/02/28 02:50:04;;;;;;;11.68;6.68;;;;;;;;;;4990728;28;20198;-57
2023/02/28 02:52:38;;;;;;;12.10;6.18;;;;;;;;;;4977070;28;20525;-60
2023/02/28 02:55:06;;;;;;;12.00;6.55;;;;;;;;;;4990212;28;20582;-62
2023/02/28 02:57:47;;;;;;;14.43;7.93;;;;;;;;;;4981889;28;20041;-55
2023/02/28 03:00:13;;;;;;;12.35;6.90;;;;;;;;;;4978170;28;20075;-58
2023/02/28 03:02:40;;;;;;;9.50;6.13;;;;;;;;;;4970331;28;20026;-61
2023/02/28 03:05:08;;;;;;;12.47;7.37;;;;;;;;;;4981724;28;20037;-56
2023/02/28 03:07:33;;;;;;;13.98;7.07;;;;;;;;;;4978546;28;20022;-57
2023/02/28 03:09:58;;;;;;;13.50;7.13;;;;;;;;;;4983668;28;20082;-61
2023/02/28 03:12:32;;;;;;;14.88;7.35;;;;;;;;;;4980407;28;20030;-57
2023/02/28 03:15:00;;;;;;;12.20;6.40;;;;;;;;;;4980528;28;20050;-57
2023/02/28 03:17:32;;;;;;;17.60;7.50;;;;;;;;;;4983265;28;20026;-55
2023/02/28 03:20:02;;;;;;;15.80;9.23;;;;;;;;;;4974484;28;20027;-56
2023/02/28 03:22:33;;;;;;;16.17;8.10;;;;;;;;;;4979087;28;20054;-61
2023/02/28 03:25:08;;;;;;;14.98;7.22;;;;;;;;;;4984094;28;20037;-59
2023/02/28 03:27:52;;;;;;;15.35;7.00;;;;;;;;;;4981661;28;20041;-59
2023/02/28 03:30:18;;;;;;;14.38;7.47;;;;;;;;;;4979852;28;20046;-55
2023/02/28 03:32:58;;;;;;;18.23;7.47;;;;;;;;;;4989281;28;20026;-56
2023/02/28 03:35:25;;;;;;;11.48;7.70;;;;;;;;;;4979164;28;20026;-55
2023/02/28 03:37:52;;;;;;;13.30;6.78;;;;;;;;;;4984408;28;20026;-57
2023/02/28 03:40:22;;;;;;;13.98;7.43;;;;;;;;;;4977735;28;20026;-58
2023/02/28 03:42:49;;;;;;;16.35;7.53;;;;;;;;;;4981238;28;20042;-68
2023/02/28 03:45:15;;;;;;;;;;;;;;;;;;4987112;28;20038;-59
2023/02/28 03:47:52;;;;;;;13.73;7.22;;;;;;;;;;4977777;28;19914;-54
2023/02/28 03:50:32;;;;;;;16.38;8.25;;;;;;;;;;4985712;28;20157;-68
2023/02/28 03:53:04;;;;;;;11.80;7.07;;;;;;;;;;4986160;28;20519;-57
2023/02/28 03:55:32;;;;;;;13.85;7.18;;;;;;;;;;4979664;28;20061;-62
2023/02/28 03:58:07;;;;;;;14.32;7.72;;;;;;;;;;4982423;28;20031;-60
2023/02/28 04:00:40;;;;;;;17.20;8.20;;;;;;;;;;4978305;28;20042;-54
2023/02/28 04:03:05;;;;;;;18.60;8.25;;;;;;;;;;4976849;28;20027;-57
2023/02/28 04:05:31;;;;;;;12.18;7.40;;;;;;;;;;4985317;28;20752;-55
2023/02/28 04:08:07;;;;;;;14.93;7.57;;;;;;;;;;4979809;28;20022;-54
2023/02/28 04:10:32;;;;;;;17.15;7.85;;;;;;;;;;4979205;28;20041;-64
2023/02/28 04:12:57;;;;;;;16.98;7.90;;;;;;;;;;4984540;28;20037;-53
2023/02/28 04:15:24;;;;;;;13.68;7.47;;;;;;;;;;4981612;28;20030;-60
2023/02/28 04:17:50;;;;;;;21.50;11.10;;;;;;;;;;4983045;28;20037;-54
2023/02/28 04:20:15;;;;;;;17.17;8.30;;;;;;;;;;4977865;28;20035;-58
2023/02/28 04:22:40;;;;;;;15.63;8.35;;;;;;;;;;4978015;28;20369;-58
2023/02/28 04:25:06;;;;;;;14.55;8.30;;;;;;;;;;4983195;28;20026;-57
2023/02/28 04:27:31;;;;;;;16.73;8.27;;;;;;;;;;4976562;28;20052;-56
2023/02/28 04:29:57;;;;;;;15.48;7.68;;;;;;;;;;4985998;28;20403;-61
2023/02/28 04:32:22;;;;;;;14.52;8.48;;;;;;;;;;4975410;28;21463;-59
2023/02/28 04:34:47;;;;;;;16.42;8.57;;;;;;;;;;4978716;28;20030;-56
2023/02/28 04:37:15;;;;;;;15.88;8.10;;;;;;;;;;4998632;28;20088;-54
2023/02/28 04:39:41;;;;;;;21.25;10.80;;;;;;;;;;4977498;28;20181;-59
2023/02/28 04:42:06;;;;;;;16.33;8.88;;;;;;;;;;4984724;28;20038;-57
2023/02/28 04:44:31;;;;;;;16.42;7.65;;;;;;;;;;4978128;28;20031;-57
2023/02/28 04:46:57;;;;;;;19.17;8.15;;;;;;;;;;4976892;28;20030;-56
2023/02/28 04:49:22;;;;;;;16.60;8.88;;;;;;;;;;4980765;28;20034;-51
2023/02/28 04:51:49;;;;;;;15.18;7.68;;;;;;;;;;4975605;28;20033;-57
2023/02/28 04:54:15;;;;;;;16.75;8.55;;;;;;;;;;4985686;28;20034;-63
2023/02/28 04:56:41;;;;;;;17.50;9.05;;;;;;;;;;4976356;28;20030;-61
2023/02/28 04:59:06;;;;;;;14.93;8.15;;;;;;;;;;4978019;28;20403;-61
2023/02/28 05:01:33;;;;;;;19.63;9.57;;;;;;;;;;4983977;28;20547;-55
2023/02/28 05:03:59;;;;;;;21.13;8.60;;;;;;;;;;4976326;28;20030;-54
2023/02/28 05:06:26;;;;;;;16.33;9.23;;;;;;;;;;4984183;28;20069;-59
2023/02/28 05:08:51;;;;;;;15.98;8.77;;;;;;;;;;4977991;28;20465;-65
2023/02/28 05:11:25;;;;;;;15.07;8.15;;;;;;;;;;4977162;28;20720;-51
2023/02/28 05:13:51;;;;;;;21.30;10.50;;;;;;;;;;4981714;28;20030;-55
2023/02/28 05:16:16;;;;;;;18.77;9.52;;;;;;;;;;4976963;28;20037;-52
2023/02/28 05:18:41;;;;;;;22.45;8.73;;;;;;;;;;4982260;28;20121;-57
2023/02/28 05:21:23;;;;;;;16.13;8.77;;;;;;;;;;4976249;28;20030;-53
2023/02/28 05:23:48;;;;;;;18.23;8.80;;;;;;;;;;4979839;28;20407;-52
2023/02/28 05:26:14;;;;;;;18.27;9.27;;;;;;;;;;4983210;28;20483;-59
2023/02/28 05:28:39;;;;;;;15.90;8.07;;;;;;;;;;4977643;28;20081;-53
2023/02/28 05:31:04;;;;;;;22.60;9.98;;;;;;;;;;4983579;28;20084;-55
2023/02/28 05:33:29;;;;;;;21.92;10.82;;;;;;;;;;4976956;28;20037;-62
2023/02/28 05:35:55;;;;;;;20.30;9.25;;;;;;;;;;4976971;28;20076;-59
2023/02/28 05:38:20;;;;;;;19.23;9.95;;;;;;;;;;4984694;28;20438;-61
2023/02/28 05:40:45;;;;;;;17.63;8.35;;;;;;;;;;4976384;28;20034;-56
2023/02/28 05:43:11;;;;;;;18.35;11.77;;;;;;;;;;4982020;28;20084;-54
2023/02/28 05:45:37;;;;;;;16.77;8.93;;;;;;;;;;4978351;28;20133;-54
2023/02/28 05:48:02;;;;;;;20.30;9.68;;;;;;;;;;4976821;28;20026;-59
2023/02/28 05:50:27;;;;;;;19.70;11.90;;;;;;;;;;4982374;28;20034;-60
2023/02/28 05:52:52;;;;;;;21.70;9.90;;;;;;;;;;4976957;28;20403;-57
2023/02/28 05:55:18;;;;;;;21.20;11.20;;;;;;;;;;4986717;28;20039;-59
2023/02/28 05:57:43;;;;;;;18.90;9.82;;;;;;;;;;4975779;28;20049;-53
2023/02/28 06:00:09;;;;;;;17.58;9.77;;;;;;;;;;4978507;28;20091;-53
2023/02/28 06:02:38;;;;;;;18.98;9.30;;;;;;;;;;4978072;28;20399;-59
2023/02/28 06:05:04;;;;;;;17.50;9.53;;;;;;;;;;4972883;28;20032;-52
2023/02/28 06:07:29;;;;;;;26.90;10.50;;;;;;;;;;4973413;28;20288;-66
2023/02/28 06:09:54;;;;;;;20.17;10.45;;;;;;;;;;4970625;28;20030;-62
2023/02/28 06:12:20;;;;;;;21.35;9.45;;;;;;;;;;4972104;28;20027;-61
2023/02/28 06:14:45;;;;;;;16.67;9.15;;;;;;;;;;4978980;28;20384;-57
2023/02/28 06:17:10;;;;;;;17.92;8.40;;;;;;;;;;4975628;28;20026;-57
2023/02/28 06:19:39;;;;;;;21.98;10.70;;;;;;;;;;4974783;28;20035;-69
2023/02/28 06:22:05;;;;;;;18.60;9.00;;;;;;;;;;4981196;28;20395;-64
2023/02/28 06:24:31;;;;;;;19.77;9.02;;;;;;;;;;4988819;28;20030;-61
2023/02/28 06:26:58;;;;;;;21.45;9.88;;;;;;;;;;4980946;28;20038;-59
2023/02/28 06:29:23;;;;;;;;;;;;;;;;;;4977307;28;20399;-52
2023/02/28 06:31:49;;;;;;;25.17;9.80;;;;;;;;;;4977264;28;19914;-58
2023/02/28 06:34:14;;;;;;;21.52;10.57;;;;;;;;;;4984660;28;20362;-56
2023/02/28 06:36:40;;;;;;;18.90;10.05;;;;;;;;;;4980559;28;20160;-60
2023/02/28 06:39:06;;;;;;;17.13;10.13;;;;;;;;;;4984475;28;20033;-57
2023/02/28 06:41:31;;;;;;;24.80;9.32;;;;;;;;;;4977728;28;20042;-60
2023/02/28 06:43:57;;;;;;;26.77;10.52;;;;;;;;;;4982186;28;20025;-58
2023/02/28 06:46:23;;;;;;;25.42;9.95;;;;;;;;;;4989424;28;20051;-58
2023/02/28 06:48:48;;;;;;;23.73;11.00;;;;;;;;;;4987440;28;20060;-55
2023/02/28 06:51:20;;;;;;;20.15;9.80;;;;;;;;;;4989462;28;20042;-62
2023/02/28 06:53:45;;;;;;;18.85;9.60;;;;;;;;;;4980894;28;20093;-54
2023/02/28 06:56:12;;;;;;;21.55;10.50;;;;;;;;;;4986958;28;20026;-56
2023/02/28 06:58:38;;;;;;;21.90;10.63;;;;;;;;;;4985883;28;20395;-55
2023/02/28 07:01:04;;;;;;;24.33;12.23;;;;;;;;;;4987746;28;20304;-63
2023/02/28 07:03:29;;;;;;;20.42;11.75;;;;;;;;;;4986009;28;20038;-58
2023/02/28 07:05:56;;;;;;;21.55;11.02;;;;;;;;;;4987215;28;20049;-51
2023/02/28 07:08:22;;;;;;;26.52;12.27;;;;;;;;;;4987006;28;20030;-54
2023/02/28 07:10:51;;;;;;;22.20;11.48;;;;;;;;;;4986367;28;20050;-56
2023/02/28 07:13:16;;;;;;;22.25;11.93;;;;;;;;;;4986130;28;20121;-59
2023/02/28 07:15:41;;;;;;;20.05;11.13;;;;;;;;;;4986021;28;20113;-57
2023/02/28 07:18:06;;;;;;;21.73;11.07;;;;;;;;;;4987793;28;20038;-54
2023/02/28 07:20:32;;;;;;;22.38;10.60;;;;;;;;;;4987994;28;20121;-60
2023/02/28 07:22:57;;;;;;;22.63;11.35;;;;;;;;;;4987028;28;20026;-56
2023/02/28 07:25:23;;;;;;;23.23;10.90;;;;;;;;;;4985342;28;20058;-56
2023/02/28 07:27:48;;;;;;;21.83;11.43;;;;;;;;;;4986766;28;20035;-64
2023/02/28 07:30:14;;;;;;;22.38;10.15;;;;;;;;;;4985548;28;20180;-50
2023/02/28 07:32:39;;;;;;;24.13;10.90;;;;;;;;;;4987812;28;20109;-55
2023/02/28 07:35:04;;;;;;;23.98;12.13;;;;;;;;;;4986419;28;20022;-59
2023/02/28 07:37:31;;;;;;;19.52;11.15;;;;;;;;;;4985730;28;20119;-56
2023/02/28 07:39:56;;;;;;;22.90;10.90;;;;;;;;;;4987331;28;20038;-57
2023/02/28 07:42:22;;;;;;;23.83;12.57;;;;;;;;;;4987474;28;20045;-54
2023/02/28 07:44:47;;;;;;;22.55;11.52;;;;;;;;;;4991487;28;20470;-55
2023/02/28 07:47:12;;;;;;;21.70;10.70;;;;;;;;;;4986544;28;20038;-61
2023/02/28 07:49:38;;;;;;;43.55;19.27;;;;;;;;;;4983372;28;20037;-53
2023/02/28 07:52:04;;;;;;;48.42;22.83;;;;;;;;;;4986621;28;20026;-60
2023/02/28 07:54:29;;;;;;;26.02;12.57;;;;;;;;;;4985571;28;20038;-64
2023/02/28 07:56:54;;;;;;;31.55;14.50;;;;;;;;;;4987264;28;20037;-55
2023/02/28 07:59:20;;;;;;;24.40;12.13;;;;;;;;;;4986716;28;20108;-54
2023/02/28 08:01:45;;;;;;;23.50;12.07;;;;;;;;;;4985266;28;20172;-56
2023/02/28 08:04:10;;;;;;;24.00;12.35;;;;;;;;;;4989214;28;20137;-51
2023/02/28 08:06:38;;;;;;;22.55;11.65;;;;;;;;;;4986119;28;20030;-54
2023/02/28 08:09:06;;;;;;;26.27;12.55;;;;;;;;;;4986645;28;20085;-58
2023/02/28 08:11:34;;;;;;;24.95;12.52;;;;;;;;;;4986989;28;20049;-60
2023/02/28 08:14:00;;;;;;;27.20;11.88;;;;;;;;;;4988197;28;20494;-57
2023/02/28 08:16:25;;;;;;;24.83;11.80;;;;;;;;;;4992623;28;20045;-56
2023/02/28 08:18:51;;;;;;;26.35;13.43;;;;;;;;;;4987304;28;20038;-55
2023/02/28 08:21:16;;;;;;;23.60;12.07;;;;;;;;;;4984601;28;20130;-55
2023/02/28 08:23:42;;;;;;;24.23;12.07;;;;;;;;;;4987817;28;20134;-55
2023/02/28 08:26:07;;;;;;;27.02;13.45;;;;;;;;;;4986672;28;20042;-50
2023/02/28 08:28:33;;;;;;;28.02;12.77;;;;;;;;;;4985936;28;20045;-50
2023/02/28 08:30:58;;;;;;;28.48;13.35;;;;;;;;;;4985462;28;20147;-57
2023/02/28 08:33:24;;;;;;;25.88;12.20;;;;;;;;;;4986869;28;20384;-58
2023/02/28 08:35:52;;;;;;;25.65;12.65;;;;;;;;;;4987879;28;20043;-59
2023/02/28 08:38:17;;;;;;;29.30;12.77;;;;;;;;;;4983543;28;20034;-50
2023/02/28 08:40:42;;;;;;;47.53;20.80;;;;;;;;;;4988892;28;20065;-57
2023/02/28 08:43:07;;;;;;;29.30;15.80;;;;;;;;;;4980443;28;20030;-58
2023/02/28 08:45:33;;;;;;;35.05;16.48;;;;;;;;;;4982052;28;20519;-59
2023/02/28 08:47:58;;;;;;;28.38;13.48;;;;;;;;;;4982836;28;20030;-55
2023/02/28 08:50:23;;;;;;;33.22;14.48;;;;;;;;;;4982238;28;20050;-51
2023/02/28 08:52:49;;;;;;;28.95;15.90;;;;;;;;;;4983280;28;20467;-56
2023/02/28 08:55:17;;;;;;;24.67;13.45;;;;;;;;;;4983228;28;20031;-60
2023/02/28 08:57:44;;;;;;;27.17;13.18;;;;;;;;;;4982536;28;20092;-56
2023/02/28 09:00:13;;;;;;;;;;;;;;;;;;4982634;28;20490;-55
2023/02/28 09:02:38;;;;;;;26.40;12.55;;;;;;;;;;4983744;28;19914;-58
2023/02/28 09:05:04;;;;;;;28.58;13.75;;;;;;;;;;4983048;28;20038;-59
2023/02/28 09:07:29;;;;;;;35.08;14.23;;;;;;;;;;4984691;28;20049;-59
2023/02/28 09:09:54;;;;;;;23.70;13.00;;;;;;;;;;4983635;28;20113;-59
2023/02/28 09:12:26;;;;;;;25.77;13.75;;;;;;;;;;4981636;28;20041;-52
2023/02/28 09:14:52;;;;;;;27.05;14.23;;;;;;;;;;4982478;28;20053;-56
2023/02/28 09:17:17;;;;;;;30.35;14.23;;;;;;;;;;4982321;28;20053;-59
2023/02/28 09:19:43;;;;;;;32.97;14.10;;;;;;;;;;4982460;28;20049;-59
2023/02/28 09:22:09;;;;;;;29.15;16.25;;;;;;;;;;4982611;28;20027;-60
2023/02/28 09:24:35;;;;;;;28.65;15.02;;;;;;;;;;4983185;28;20519;-56
2023/02/28 09:27:00;;;;;;;28.08;14.23;;;;;;;;;;4980889;28;20026;-56
2023/02/28 09:29:26;;;;;;;27.50;14.35;;;;;;;;;;4982119;28;20045;-58
2023/02/28 09:31:51;;;;;;;30.17;14.95;;;;;;;;;;4982205;28;20073;-59
2023/02/28 09:34:17;;;;;;;26.75;13.95;;;;;;;;;;4982655;28;20042;-56
2023/02/28 09:36:42;;;;;;;25.27;13.18;;;;;;;;;;4981052;28;20039;-58
2023/02/28 09:39:09;;;;;;;29.17;13.27;;;;;;;;;;4980892;28;20042;-57
2023/02/28 09:41:39;;;;;;;28.70;13.80;;;;;;;;;;4982962;28;20038;-58
2023/02/28 09:44:08;;;;;;;31.52;15.68;;;;;;;;;;4981583;28;20762;-54
2023/02/28 09:46:42;;;;;;;30.52;13.98;;;;;;;;;;4983496;28;20482;-55
2023/02/28 09:49:12;;;;;;;30.95;13.73;;;;;;;;;;4978156;28;20030;-55
2023/02/28 09:51:51;;;;;;;26.30;13.95;;;;;;;;;;4982110;28;20646;-56
2023/02/28 09:54:19;;;;;;;24.10;13.15;;;;;;;;;;4983384;28;20494;-59
2023/02/28 09:56:47;;;;;;;24.50;13.23;;;;;;;;;;4982966;28;20117;-55
2023/02/28 09:59:25;;;;;;;27.67;15.65;;;;;;;;;;4983409;28;20070;-58
2023/02/28 10:01:57;;;;;;;26.60;13.50;;;;;;;;;;4981881;28;20053;-57
2023/02/28 10:04:34;;;;;;;30.83;13.23;;;;;;;;;;4972750;28;20395;-57
2023/02/28 10:07:02;;;;;;;24.83;13.30;;;;;;;;;;4981726;28;20376;-56
2023/02/28 10:09:27;;;;;;;;;;;;;;;;;;4979948;28;20069;-59
2023/02/28 10:11:54;;;;;;;21.45;12.13;;;;;;;;;;4982685;28;19953;-54
2023/02/28 10:14:21;;;;;;;27.15;13.88;;;;;;;;;;4980749;28;20787;-52
2023/02/28 10:16:51;;;;;;;25.33;13.05;;;;;;;;;;4980799;28;20040;-57
2023/02/28 10:19:20;;;;;;;28.45;14.77;;;;;;;;;;4982103;28;20113;-59
2023/02/28 10:22:05;;;;;;;28.05;14.63;;;;;;;;;;4975057;28;20140;-60
2023/02/28 10:24:34;;;;;;;23.77;12.70;;;;;;;;;;4979696;28;20077;-60
2023/02/28 10:27:01;;;;;;;28.45;13.93;;;;;;;;;;4983242;28;20030;-57
2023/02/28 10:29:27;;;;;;;28.65;14.35;;;;;;;;;;4984364;28;20227;-57
2023/02/28 10:31:52;;;;;;;24.60;13.48;;;;;;;;;;4980539;28;20041;-58
2023/02/28 10:34:18;;;;;;;26.48;13.35;;;;;;;;;;4980025;28;20035;-56
2023/02/28 10:36:44;;;;;;;23.95;13.82;;;;;;;;;;4981482;28;20030;-60
2023/02/28 10:39:27;;;;;;;27.13;13.80;;;;;;;;;;4978846;28;20100;-54
2023/02/28 10:41:53;;;;;;;26.20;13.23;;;;;;;;;;4981731;28;20041;-54
2023/02/28 10:44:22;;;;;;;28.58;13.82;;;;;;;;;;4978548;28;20026;-54
2023/02/28 10:46:48;;;;;;;29.35;14.63;;;;;;;;;;4982611;28;20553;-55
2023/02/28 10:49:21;;;;;;;25.10;13.45;;;;;;;;;;4981355;28;20034;-53
2023/02/28 10:51:48;;;;;;;28.73;13.75;;;;;;;;;;4981211;28;20057;-54
2023/02/28 10:54:26;;;;;;;23.95;12.15;;;;;;;;;;4981844;28;20039;-58
2023/02/28 10:57:05;;;;;;;24.85;12.98;;;;;;;;;;4980623;28;20030;-54
2023/02/28 10:59:30;;;;;;;22.42;11.82;;;;;;;;;;4981242;28;20045;-58
2023/02/28 11:01:56;;;;;;;23.05;12.45;;;;;;;;;;4980651;28;20034;-54
2023/02/28 11:04:36;;;;;;;24.73;14.43;;;;;;;;;;4978235;28;20486;-56
2023/02/28 11:07:21;;;;;;;22.60;13.70;;;;;;;;;;4978727;28;20041;-53
2023/02/28 11:09:49;;;;;;;26.42;12.98;;;;;;;;;;4980473;28;20112;-59
2023/02/28 11:12:26;;;;;;;26.15;13.55;;;;;;;;;;4980959;28;20030;-56
2023/02/28 11:14:53;;;;;;;23.75;12.15;;;;;;;;;;4981016;28;20061;-57
2023/02/28 11:17:23;;;;;;;23.00;12.55;;;;;;;;;;4980908;28;20109;-54
2023/02/28 11:19:50;;;;;;;24.52;12.25;;;;;;;;;;4977115;28;20182;-61
2023/02/28 11:22:20;;;;;;;18.50;11.73;;;;;;;;;;4979242;28;20086;-56
2023/02/28 11:24:48;;;;;;;24.20;12.77;;;;;;;;;;4976076;28;20037;-59
2023/02/28 11:27:39;;;;;;;27.52;13.68;;;;;;;;;;4981381;28;20052;-52
2023/02/28 11:30:22;;;;;;;26.70;13.55;;;;;;;;;;4980913;28;20053;-58
2023/02/28 11:32:48;;;;;;;27.35;13.25;;;;;;;;;;4984151;28;20042;-55
2023/02/28 11:35:16;;;;;;;20.83;12.65;;;;;;;;;;4985019;28;20482;-62
2023/02/28 11:37:42;;;;;;;19.85;12.18;;;;;;;;;;4984743;28;20037;-56
2023/02/28 11:40:17;;;;;;;19.05;12.52;;;;;;;;;;4985088;28;20042;-50
2023/02/28 11:42:52;;;;;;;22.48;12.77;;;;;;;;;;4984278;28;20034;-57
2023/02/28 11:45:21;;;;;;;24.58;12.27;;;;;;;;;;4976267;28;20042;-62
2023/02/28 11:47:50;;;;;;;25.00;12.55;;;;;;;;;;4983198;28;20228;-55
2023/02/28 11:50:34;;;;;;;21.35;13.20;;;;;;;;;;4982783;28;20541;-56
2023/02/28 11:53:01;;;;;;;21.48;11.98;;;;;;;;;;4997989;28;20089;-58
2023/02/28 11:55:36;;;;;;;21.35;12.60;;;;;;;;;;4983138;28;20037;-59
2023/02/28 11:58:04;;;;;;;22.48;12.77;;;;;;;;;;4983732;28;20030;-60
2023/02/28 12:00:32;;;;;;;25.20;13.15;;;;;;;;;;4982504;28;20038;-56
2023/02/28 12:03:21;;;;;;;21.73;12.32;;;;;;;;;;4981559;28;20464;-60
2023/02/28 12:05:49;;;;;;;23.63;12.13;;;;;;;;;;4984935;28;20041;-55
2023/02/28 12:08:14;;;;;;;23.02;12.93;;;;;;;;;;4983968;28;20066;-55
2023/02/28 12:10:57;;;;;;;21.77;12.60;;;;;;;;;;4983583;28;20054;-63
2023/02/28 12:13:26;;;;;;;25.02;12.90;;;;;;;;;;4981542;28;20116;-56
2023/02/28 12:16:07;;;;;;;23.13;12.70;;;;;;;;;;4986016;28;20105;-59
2023/02/28 12:18:52;;;;;;;24.02;12.00;;;;;;;;;;4982524;28;20805;-53
2023/02/28 12:21:28;;;;;;;22.63;12.77;;;;;;;;;;4982867;28;20561;-53
2023/02/28 12:24:12;;;;;;;24.65;13.15;;;;;;;;;;4983372;28;20026;-58
2023/02/28 12:26:44;;;;;;;20.02;13.73;;;;;;;;;;4981512;28;20026;-57
2023/02/28 12:29:23;;;;;;;25.67;13.18;;;;;;;;;;4982702;28;20036;-58
2023/02/28 12:32:03;;;;;;;19.75;12.07;;;;;;;;;;4981390;28;20096;-56
2023/02/28 12:34:31;;;;;;;21.58;12.88;;;;;;;;;;4985863;28;20113;-52
2023/02/28 12:37:01;;;;;;;23.95;14.00;;;;;;;;;;4982812;28;20033;-59
2023/02/28 12:39:26;;;;;;;19.83;12.32;;;;;;;;;;4983174;28;20914;-60
2023/02/28 12:41:59;;;;;;;20.58;12.82;;;;;;;;;;4983549;28;20049;-64
2023/02/28 12:44:24;;;;;;;22.65;13.18;;;;;;;;;;4983903;28;20049;-58
2023/02/28 12:46:51;;;;;;;22.85;13.18;;;;;;;;;;4983134;28;20034;-55
2023/02/28 12:49:19;;;;;;;25.52;14.05;;;;;;;;;;4983148;28;20120;-59
2023/02/28 12:51:45;;;;;;;21.17;13.23;;;;;;;;;;4984072;28;20057;-61
2023/02/28 12:54:34;;;;;;;25.63;13.63;;;;;;;;;;4984367;28;20102;-59
2023/02/28 12:57:18;;;;;;;22.48;12.05;;;;;;;;;;4982030;28;20049;-56
2023/02/28 13:00:01;;;;;;;23.20;12.70;;;;;;;;;;4978478;28;20458;-54
2023/02/28 13:02:26;;;;;;;19.10;12.63;;;;;;;;;;4983383;28;20037;-61
2023/02/28 13:04:57;;;;;;;20.85;12.10;;;;;;;;;;4982110;28;20026;-59
2023/02/28 13:07:40;;;;;;;21.33;12.70;;;;;;;;;;4984081;28;20042;-52
2023/02/28 13:10:07;;;;;;;24.38;12.93;;;;;;;;;;4983185;28;20034;-52
2023/02/28 13:12:33;;;;;;;21.17;12.75;;;;;;;;;;4984131;28;20101;-55
2023/02/28 13:15:16;;;;;;;28.90;13.70;;;;;;;;;;4986259;28;20125;-51
2023/02/28 13:17:41;;;;;;;20.38;14.57;;;;;;;;;;4978279;28;20059;-55
2023/02/28 13:20:21;;;;;;;21.67;12.60;;;;;;;;;;4985560;28;20177;-49
2023/02/28 13:22:48;;;;;;;20.90;13.13;;;;;;;;;;4994173;28;20134;-53
2023/02/28 13:25:22;;;;;;;21.45;12.68;;;;;;;;;;4985765;28;20046;-53
2023/02/28 13:27:54;;;;;;;19.95;12.57;;;;;;;;;;4985268;28;20112;-55
2023/02/28 13:30:38;;;;;;;18.95;12.40;;;;;;;;;;4986029;28;20381;-52
2023/02/28 13:33:23;;;;;;;23.27;13.35;;;;;;;;;;4977542;28;20042;-57
2023/02/28 13:36:00;;;;;;;21.98;12.85;;;;;;;;;;4984186;28;20109;-52
2023/02/28 13:38:32;;;;;;;20.80;12.63;;;;;;;;;;4985268;28;20026;-56
2023/02/28 13:41:18;;;;;;;24.73;12.75;;;;;;;;;;4988569;28;20079;-57
2023/02/28 13:43:58;;;;;;;22.33;12.70;;;;;;;;;;4984714;28;20546;-57
2023/02/28 13:46:24;;;;;;;19.05;12.55;;;;;;;;;;5001895;28;20455;-57
2023/02/28 13:48:49;;;;;;;23.35;13.77;;;;;;;;;;4983758;28;20526;-51
2023/02/28 13:51:32;;;;;;;20.85;12.95;;;;;;;;;;4984337;28;20070;-59
2023/02/28 13:54:02;;;;;;;20.13;12.65;;;;;;;;;;4984692;28;20026;-52
2023/02/28 13:56:34;;;;;;;22.83;14.48;;;;;;;;;;4983085;28;20034;-55
2023/02/28 13:58:59;;;;;;;20.23;12.77;;;;;;;;;;4982258;28;20057;-51
2023/02/28 14:01:33;;;;;;;21.90;13.25;;;;;;;;;;4982359;28;20038;-51
2023/02/28 14:04:17;;;;;;;25.75;17.13;;;;;;;;;;4983865;28;20475;-56
2023/02/28 14:06:50;;;;;;;22.17;13.73;;;;;;;;;;4983934;28;20045;-57
2023/02/28 14:09:23;;;;;;;22.83;13.63;;;;;;;;;;4984475;28;20518;-53
2023/02/28 14:11:48;;;;;;;20.02;13.07;;;;;;;;;;4983510;28;20152;-54
2023/02/28 14:14:33;;;;;;;24.83;13.95;;;;;;;;;;4985846;28;20117;-51
2023/02/28 14:16:58;;;;;;;22.45;12.48;;;;;;;;;;4981941;28;20034;-56
2023/02/28 14:19:25;;;;;;;19.02;12.77;;;;;;;;;;4985756;28;20039;-50
2023/02/28 14:21:50;;;;;;;20.98;12.20;;;;;;;;;;4982486;28;20505;-59
2023/02/28 14:24:15;;;;;;;26.45;17.02;;;;;;;;;;4983393;28;20042;-59
2023/02/28 14:26:59;;;;;;;21.35;13.45;;;;;;;;;;4983329;28;20551;-58
2023/02/28 14:29:30;;;;;;;22.55;12.88;;;;;;;;;;4980118;28;20030;-55
2023/02/28 14:32:02;;;;;;;22.65;13.63;;;;;;;;;;4982727;28;20514;-57
2023/02/28 14:34:49;;;;;;;23.33;13.57;;;;;;;;;;4976887;28;20057;-62
2023/02/28 14:37:20;;;;;;;22.02;13.63;;;;;;;;;;4981609;28;20122;-54